createdAt,value
2023-05-20T00:00:37.866Z,54.42
2023-05-20T00:05:40.724Z,54.53
2023-05-20T00:10:43.223Z,54.52
2023-05-20T00:15:46.621Z,54.61
2023-05-20T00:20:49.023Z,54.30
2023-05-20T00:25:51.318Z,54.76
2023-05-20T00:30:53.785Z,54.30
2023-05-20T00:35:56.370Z,54.13
2023-05-20T00:40:58.822Z,54.44
2023-05-20T00:46:01.796Z,54.41
2023-05-20T00:51:05.386Z,54.43
2023-05-20T00:56:08.712Z,54.41
2023-05-20T01:01:11.861Z,54.64
2023-05-20T01:06:14.408Z,54.47
2023-05-20T01:11:31.796Z,55.14
2023-05-20T01:16:36.216Z,55.16
2023-05-20T01:21:39.039Z,55.19
2023-05-20T01:26:41.643Z,55.37
2023-05-20T01:31:44.262Z,55.49
2023-05-20T01:36:47.812Z,55.54
2023-05-20T01:41:50.398Z,55.54
2023-05-20T01:46:53.093Z,55.58
2023-05-20T01:51:56.021Z,56.00
2023-05-20T01:56:58.636Z,56.22
2023-05-20T02:02:01.164Z,56.13
2023-05-20T02:07:04.029Z,56.46
2023-05-20T02:12:07.207Z,56.73
2023-05-20T02:17:10.736Z,56.89
2023-05-20T02:22:14.294Z,56.87
2023-05-20T02:27:19.304Z,56.94
2023-05-20T02:32:21.853Z,56.98
2023-05-20T02:37:24.409Z,57.29
2023-05-20T02:42:26.862Z,57.55
2023-05-20T02:47:29.672Z,57.60
2023-05-20T02:52:32.171Z,57.87
2023-05-20T02:57:38.471Z,57.99
2023-05-20T03:02:42.727Z,58.30
2023-05-20T03:07:46.825Z,58.27
2023-05-20T03:12:49.448Z,58.08
2023-05-20T03:17:51.868Z,58.41
2023-05-20T03:22:54.283Z,58.55
2023-05-20T03:27:58.668Z,58.86
2023-05-20T03:33:03.171Z,59.17
2023-05-20T03:38:05.939Z,58.83
2023-05-20T03:43:10.920Z,59.17
2023-05-20T03:48:13.535Z,59.32
2023-05-20T03:53:16.202Z,59.24
2023-05-20T03:58:21.011Z,59.54
2023-05-20T04:03:23.921Z,59.59
2023-05-20T04:08:26.757Z,59.84
2023-05-20T04:13:29.544Z,59.69
2023-05-20T04:18:32.351Z,60.07
2023-05-20T04:23:34.865Z,60.12
2023-05-20T04:28:38.141Z,60.09
2023-05-20T04:33:41.518Z,60.15
2023-05-20T04:38:44.994Z,60.00
2023-05-20T04:43:47.458Z,59.79
2023-05-20T04:48:49.962Z,60.08
2023-05-20T04:53:52.413Z,60.18
2023-05-20T04:58:56.467Z,59.96
2023-05-20T05:03:59.010Z,60.05
2023-05-20T05:09:01.557Z,59.89
2023-05-20T05:14:04.301Z,60.09
2023-05-20T05:19:07.673Z,59.60
2023-05-20T05:24:13.492Z,59.72
2023-05-20T05:29:16.685Z,59.60
2023-05-20T05:34:19.160Z,59.53
2023-05-20T05:39:21.984Z,59.57
2023-05-20T05:44:24.424Z,59.68
2023-05-20T05:49:27.298Z,59.44
2023-05-20T05:54:29.891Z,59.52
2023-05-20T05:59:32.467Z,59.46
2023-05-20T06:04:35.412Z,59.47
2023-05-20T06:09:38.973Z,59.07
2023-05-20T06:14:41.773Z,59.10
2023-05-20T06:19:44.330Z,58.71
2023-05-20T06:24:46.901Z,58.26
2023-05-20T06:29:49.471Z,58.01
2023-05-20T06:34:52.060Z,57.00
2023-05-20T06:39:54.542Z,55.42
2023-05-20T06:44:57.959Z,54.27
2023-05-20T06:50:21.019Z,54.48
2023-05-20T06:55:23.667Z,52.74
2023-05-20T07:00:26.505Z,53.50
2023-05-20T07:05:29.905Z,52.66
2023-05-20T07:10:32.470Z,51.04
2023-05-20T07:15:35.409Z,50.87
2023-05-20T07:20:38.847Z,50.38
2023-05-20T07:25:47.713Z,49.73
2023-05-20T07:30:50.957Z,48.88
2023-05-20T07:36:00.048Z,48.11
2023-05-20T07:41:02.649Z,47.55
2023-05-20T07:46:05.574Z,47.18
2023-05-20T07:51:07.919Z,46.24
2023-05-20T07:56:10.611Z,46.48
2023-05-20T08:01:13.965Z,45.46
2023-05-20T08:06:17.943Z,44.92
2023-05-20T08:11:22.052Z,45.03
2023-05-20T08:16:24.731Z,44.03
2023-05-20T08:21:27.284Z,44.53
2023-05-20T08:26:29.915Z,44.69
2023-05-20T08:31:33.565Z,43.98
2023-05-20T08:36:36.370Z,44.49
2023-05-20T08:41:39.763Z,42.91
2023-05-20T08:46:42.845Z,43.41
2023-05-20T08:51:47.694Z,42.89
2023-05-20T08:56:50.637Z,43.53
2023-05-20T09:01:53.249Z,43.82
2023-05-20T09:06:56.123Z,43.86
2023-05-20T09:11:58.494Z,43.97
2023-05-20T09:17:01.041Z,44.23
2023-05-20T09:22:05.584Z,43.84
2023-05-20T09:27:08.139Z,44.01
2023-05-20T09:32:14.318Z,43.58
2023-05-20T09:37:22.606Z,43.76
2023-05-20T09:42:29.345Z,43.31
2023-05-20T09:47:32.308Z,43.19
2023-05-20T09:52:39.249Z,43.46
2023-05-20T09:57:42.409Z,43.01
2023-05-20T10:02:52.564Z,43.02
2023-05-20T10:08:17.225Z,42.96
2023-05-20T10:13:34.734Z,44.37
2023-05-20T10:18:58.716Z,44.08
2023-05-20T10:24:08.792Z,43.62
2023-05-20T10:29:18.599Z,44.00
2023-05-20T10:34:23.025Z,44.12
2023-05-20T10:39:30.268Z,43.90
2023-05-20T10:44:47.482Z,43.32
2023-05-20T10:49:49.986Z,44.26
2023-05-20T10:55:01.292Z,42.55
2023-05-20T11:00:06.485Z,42.80
2023-05-20T11:05:12.715Z,43.38
2023-05-20T11:10:15.273Z,43.56
2023-05-20T11:15:18.372Z,43.53
2023-05-20T11:20:21.192Z,43.28
2023-05-20T11:25:24.211Z,43.88
2023-05-20T11:30:27.071Z,44.41
2023-05-20T11:35:30.978Z,44.68
2023-05-20T11:40:42.755Z,45.27
2023-05-20T11:45:59.715Z,45.18
2023-05-20T11:51:02.951Z,44.72
2023-05-20T11:56:05.597Z,44.98
2023-05-20T12:01:20.947Z,44.81
2023-05-20T12:06:24.658Z,44.11
2023-05-20T12:11:27.201Z,44.80
2023-05-20T12:16:30.716Z,44.35
2023-05-20T12:21:33.357Z,44.88
2023-05-20T12:26:35.858Z,45.40
2023-05-20T12:31:40.124Z,46.77
2023-05-20T12:36:42.875Z,47.43
2023-05-20T12:41:45.375Z,49.10
2023-05-20T12:46:48.130Z,50.84
2023-05-20T12:51:50.872Z,51.06
2023-05-20T12:56:53.296Z,51.60
2023-05-20T13:01:55.886Z,51.46
2023-05-20T13:06:58.609Z,51.54
2023-05-20T13:12:02.262Z,51.24
2023-05-20T13:17:04.905Z,51.12
2023-05-20T13:22:07.848Z,51.00
2023-05-20T13:27:11.126Z,50.83
2023-05-20T13:32:14.033Z,50.36
2023-05-20T13:37:16.439Z,49.49
2023-05-20T13:42:18.905Z,49.76
2023-05-20T13:47:21.817Z,49.59
2023-05-20T13:52:24.433Z,48.50
2023-05-20T13:57:28.332Z,48.07
2023-05-20T14:02:32.212Z,47.88
2023-05-20T14:07:34.990Z,47.72
2023-05-20T14:12:37.445Z,46.95
2023-05-20T14:17:41.551Z,46.96
2023-05-20T14:22:45.054Z,46.75
2023-05-20T14:27:50.849Z,46.41
2023-05-20T14:32:53.451Z,46.03
2023-05-20T14:37:55.932Z,46.19
2023-05-20T14:42:58.488Z,45.32
2023-05-20T14:48:00.916Z,46.08
2023-05-20T14:53:03.510Z,45.50
2023-05-20T14:58:05.914Z,44.99
2023-05-20T15:03:08.623Z,45.34
2023-05-20T15:08:11.443Z,45.25
2023-05-20T15:13:14.309Z,45.45
2023-05-20T15:18:17.114Z,45.60
2023-05-20T15:23:19.786Z,44.96
2023-05-20T15:28:22.376Z,44.76
2023-05-20T15:33:25.164Z,44.86
2023-05-20T15:38:27.876Z,43.79
2023-05-20T15:43:30.502Z,43.94
2023-05-20T15:48:40.154Z,44.93
2023-05-20T15:59:23.771Z,45.47
2023-05-20T16:04:30.346Z,45.14
2023-05-20T16:09:39.346Z,45.01
2023-05-20T16:14:45.571Z,44.10
2023-05-20T16:19:50.445Z,44.73
2023-05-20T16:24:53.105Z,44.47
2023-05-20T16:29:55.968Z,44.95
2023-05-20T16:34:58.526Z,44.47
2023-05-20T16:40:01.181Z,44.46
2023-05-20T16:45:05.799Z,45.48
2023-05-20T16:50:09.303Z,45.86
2023-05-20T16:55:12.965Z,45.80
2023-05-20T17:00:16.686Z,46.07
2023-05-20T17:05:22.485Z,46.70
2023-05-20T17:10:25.091Z,47.55
2023-05-20T17:15:27.812Z,48.58
2023-05-20T17:20:30.389Z,50.52
2023-05-20T17:25:33.309Z,51.68
2023-05-20T17:30:38.085Z,53.55
2023-05-20T17:35:41.150Z,54.42
2023-05-20T17:40:44.001Z,54.49
2023-05-20T17:45:46.989Z,55.35
2023-05-20T17:50:49.570Z,56.39
2023-05-20T17:55:52.171Z,57.70
2023-05-20T18:00:54.774Z,58.46
2023-05-20T18:05:57.458Z,58.98
2023-05-20T18:11:00.762Z,60.13
2023-05-20T18:16:03.367Z,61.18
2023-05-20T18:21:08.072Z,61.47
2023-05-20T18:26:10.891Z,61.78
2023-05-20T18:31:13.440Z,62.10
2023-05-20T18:36:16.111Z,62.85
2023-05-20T18:41:18.926Z,63.00
2023-05-20T18:46:26.321Z,63.79
2023-05-20T18:51:33.464Z,63.57
2023-05-20T18:56:39.613Z,64.24
2023-05-20T19:01:43.591Z,64.14
2023-05-20T19:06:46.184Z,64.42
2023-05-20T19:11:49.038Z,64.88
2023-05-20T19:16:52.767Z,65.26
2023-05-20T19:22:00.520Z,65.15
2023-05-20T19:27:03.536Z,65.26
2023-05-20T19:32:06.730Z,65.22
2023-05-20T19:37:12.600Z,64.89
2023-05-20T19:42:18.492Z,65.20
2023-05-20T19:47:21.708Z,65.16
2023-05-20T19:52:24.301Z,65.36
2023-05-20T19:57:27.743Z,65.56
2023-05-20T20:02:30.703Z,65.65
2023-05-20T20:07:33.714Z,66.13
2023-05-20T20:12:36.197Z,66.59
2023-05-20T20:17:45.798Z,66.96
2023-05-20T20:22:48.521Z,67.15
2023-05-20T20:27:51.417Z,67.57
2023-05-20T20:32:54.362Z,67.59
2023-05-20T20:37:57.011Z,67.73
2023-05-20T20:42:59.432Z,67.42
2023-05-20T20:48:02.142Z,67.15
2023-05-20T20:53:04.857Z,67.52
2023-05-20T20:58:10.882Z,68.16
2023-05-20T21:03:13.740Z,67.82
2023-05-20T21:08:17.633Z,68.00
2023-05-20T21:13:20.150Z,68.21
2023-05-20T21:18:24.187Z,68.28
2023-05-20T21:23:26.760Z,68.68
2023-05-20T21:28:29.150Z,68.60
2023-05-20T21:33:31.544Z,68.93
2023-05-20T21:38:33.983Z,69.17
2023-05-20T21:43:37.716Z,69.12
2023-05-20T21:48:40.213Z,69.47
2023-05-20T21:53:42.733Z,69.59
2023-05-20T21:58:45.864Z,69.67
2023-05-20T22:03:51.282Z,69.98
2023-05-20T22:08:55.177Z,69.88
2023-05-20T22:14:00.138Z,70.45
2023-05-20T22:19:02.902Z,70.19
2023-05-20T22:24:05.486Z,70.22
2023-05-20T22:29:08.471Z,70.51
2023-05-20T22:34:10.902Z,70.87
2023-05-20T22:39:13.677Z,70.68
2023-05-20T22:44:19.129Z,70.98
2023-05-20T22:49:24.175Z,71.04
2023-05-20T22:54:26.816Z,70.96
2023-05-20T22:59:31.483Z,71.38
2023-05-20T23:04:34.346Z,71.62
2023-05-20T23:09:36.758Z,71.56
2023-05-20T23:14:39.188Z,71.52
2023-05-20T23:19:41.729Z,71.50
2023-05-20T23:24:44.127Z,71.39
2023-05-20T23:29:46.517Z,71.42
2023-05-20T23:34:53.725Z,71.60
2023-05-20T23:39:56.339Z,71.67
2023-05-20T23:44:58.773Z,71.79
2023-05-20T23:50:01.716Z,72.05
2023-05-20T23:55:09.642Z,72.12
